Pagrindinis puslapis
METAR-TAF:

METAR-TAF

Oro uostai :

Punta Caucedo, Dominikos Respublika

platuma: 18-26N, ilguma: 069-40W, Aukštis: 18 m

Dabartinis oras

Ataskaita buvo paskelbta 10 minutes, ne 02:00 UTC
Vėjas 6 kt iš Šiaurės Rytų
Temperatūra 28°C
Drėgmė 79%
Slėgis 1016 hPa
Matomumas 10 km arba daugiau
Išsisklaidę debesys ne aukštis 1800 ft

METAR: MDSD 170200Z 05006KT 9999 SCT018 28/24 Q1016

Laikas: 22:10 (02:10 UTC)

Prognozė

Ataskaita buvo paskelbta 4 valandos ir 10 minutes, ne 22:00 UTC
Prognozė galioja nuo 17 metu 00 UTC su 18 metu 00 UTC
Vėjas 4 kt iš Rytų/Šiaurės Rytų
Matomumas 10 km arba daugiau
Mažai debesys ne aukštis 1800 ft
Tapsmas
nuo 17 metu 08 UTC su 17 metu 10 UTC
Vėjas kt iš Šiaurės

TAF: MDSD 162200Z 1700/1800 07004KT 9999 FEW018 BECMG 1708/1710 00000KT

Orai ataskaitas ir orų prognozės (METAR, TAF).

turimą stotys yra geltonos ir raudonos taškus žemėlapyje.

Perkelti pele per norėdami pamatyti stoties vardą.

Tada spustelėkite, norėdami matyti oro stebėjimo ir prognozės.

Norėdami pakeisti žemėlapį: spustelėkite ant žalios mygtukų su juodo kryžiaus žemyn,; žalią mygtuką su brūkšneliu, jei norite nutolinti; arba žalių rodyklių gretimoms žemėlapius.


METAR-TAF: